01:15
Airports
History
Links
Donate
Help keep this website running!
PayPal
Bitcoin
This page is community maintained. The information is intended for PC simulator navigation or reference.
Always use approved charts for navigation.
SNNF
Nossa Senhora de Fatima
Nossa Senhora de Fatima (SNNF)
Teresina, Piauí, Brazil (64057)
4
Lat/Lng:5° 2' 1" S / 42° 42' 20" W
-5.033611 / -42.705556
Elevation:607'ft / 185mMSL
ID / ICAO:SNNF
Runways:1
Longest:02-20
Dirt 901m / 2,957ft
Nearby Weather01:00 GMT 2018-02-18
Nearby weather at SBTE, Senador Petronio Portella located 8.3 nautical miles from SNNF
Altimeter: 29.91
Visibility: 6.2 statute miles
Wind: 3 knots (from 340°)
Temp: 24°c / 75°f
Humidity: 94.2%

METAR: SBTE 180100Z 34003KT 9999 -RA SCT015 OVC100 24/23 Q1013

(Powered by phpweather)
Runway 02 / 20
Dimensions:901.2 x 18m 2957' x 59'ft
Surface:Dirt
Runway 02 [A]Runway 20 [B]
Heading:358°TH 178°TH
Lat:
Lng:
5° 2' 15.57"S
42° 42' 19.61"W
5° 1' 46.43"S
42° 42' 20.39"W
(Edited 2012-09-12) [ Sign in to Edit ]
User Notes and Comments
5° 2' 1" S / 42° 42' 20" W
Distance To
Airport ID:
Nearby Airports
(C) Senador Petronio Portella 8.3 NM
SBTE ( WX ) WSW 257°
4 Tambori 8.8 NM
SNWQ S 178°
(U) Tambori 8.8 NM
SNTC S 186°
(U) DOMINGOS REGO 12.0 NM
SNDR WSW 254°
(U) Campo Maior 33.0 NM
SDYX ENE 67°
(C) Caxias 45.9 NM
SNXS WNW 284°
(U) Dr. Almir Lopes de Oliveira Melo 56.6 NM
SIDB NNW 338°
VFR Chart
Flight Planning at SkyVector.com